CheckWX is a tool to help pilots better visualize weather data.  It is not intended as a substitute for an official pre-flight weather briefing.

19:01:40 UTC

KMIA TAF
Miami International Airport
Miami, Florida, USA
KMIA 191722Z 1918/2024 14012KT P6SM FEW035 SCT250 FM192300 20007KT P6SM SCT030 SCT070 BKN250 FM200100 VRB03KT P6SM SCT020 BKN250 FM201400 17008KT P6SM SCT030 SCT250

Jun-19@
18:00 UTC

Jun-19 @ 18:00 UTC

Jun-19@
23:00 UTC

Jun-19 @ 23:00 UTC

KMIA 191722Z 1918/2024 14012KT P6SM FEW035 SCT250
Wind
  • 140° at 12 KTS
Cloud Levels
  • Few at 3,500' AGL
  • Scattered at 25,000' AGL

Jun-19@
23:00 UTC

Jun-19 @ 23:00 UTC

Jun-20@
01:00 UTC

Jun-20 @ 01:00 UTC

FM192300 20007KT P6SM SCT030 SCT070 BKN250

From

From Standard forecast or significant change

Wind
  • 200° at 7 KTS
Cloud Levels
  • Scattered at 3,000' AGL
  • Scattered at 7,000' AGL
  • Broken at 25,000' AGL

Jun-20@
01:00 UTC

Jun-20 @ 01:00 UTC

Jun-20@
14:00 UTC

Jun-20 @ 14:00 UTC

FM200100 VRB03KT P6SM SCT020 BKN250

From

From Standard forecast or significant change

Wind
  • Variable at 3 KTS
Cloud Levels
  • Scattered at 2,000' AGL
  • Broken at 25,000' AGL

Jun-20@
14:00 UTC

Jun-20 @ 14:00 UTC

Jun-21@
00:00 UTC

Jun-21 @ 00:00 UTC

FM201400 17008KT P6SM SCT030 SCT250

From

From Standard forecast or significant change

Wind
  • 170° at 8 KTS
Cloud Levels
  • Scattered at 3,000' AGL
  • Scattered at 25,000' AGL